createdAt,value
2022-08-23T00:00:00.372Z,19.30
2022-08-23T00:02:35.522Z,19.30
2022-08-23T00:05:09.118Z,19.30
2022-08-23T00:07:41.035Z,19.30
2022-08-23T00:10:10.149Z,19.30
2022-08-23T00:12:38.577Z,19.30
2022-08-23T00:15:07.555Z,19.30
2022-08-23T00:17:36.787Z,19.30
2022-08-23T00:20:06.426Z,19.30
2022-08-23T00:22:34.732Z,19.30
2022-08-23T00:25:04.458Z,19.30
2022-08-23T00:27:33.385Z,19.30
2022-08-23T00:30:01.495Z,19.30
2022-08-23T00:32:30.950Z,19.30
2022-08-23T00:34:59.633Z,19.20
2022-08-23T00:37:28.574Z,19.10
2022-08-23T00:39:56.600Z,19.00
2022-08-23T00:42:49.019Z,19.00
2022-08-23T00:45:35.689Z,18.90
2022-08-23T00:48:04.177Z,18.80
2022-08-23T00:50:35.551Z,18.70
2022-08-23T00:53:05.769Z,18.60
2022-08-23T00:55:34.877Z,18.50
2022-08-23T00:58:04.637Z,18.40
2022-08-23T01:00:33.841Z,18.40
2022-08-23T01:03:02.888Z,18.30
2022-08-23T01:05:35.874Z,18.30
2022-08-23T01:08:04.593Z,18.20
2022-08-23T01:10:34.351Z,18.00
2022-08-23T01:13:05.791Z,18.00
2022-08-23T01:15:37.979Z,17.90
2022-08-23T01:18:08.741Z,17.90
2022-08-23T01:20:50.156Z,17.80
2022-08-23T01:23:32.243Z,17.70
2022-08-23T01:26:00.351Z,17.60
2022-08-23T01:28:28.385Z,17.70
2022-08-23T01:30:56.992Z,17.70
2022-08-23T01:33:25.015Z,17.70
2022-08-23T01:35:54.488Z,17.70
2022-08-23T01:38:23.519Z,17.70
2022-08-23T01:40:53.211Z,17.60
2022-08-23T01:43:22.494Z,17.70
2022-08-23T01:45:53.683Z,17.70
2022-08-23T01:48:24.015Z,17.80
2022-08-23T01:50:52.428Z,17.80
2022-08-23T01:53:20.446Z,17.80
2022-08-23T01:55:52.382Z,17.80
2022-08-23T01:58:21.682Z,17.80
2022-08-23T02:00:49.662Z,17.80
2022-08-23T02:03:17.652Z,17.70
2022-08-23T02:05:45.833Z,17.70
2022-08-23T02:08:31.551Z,17.70
2022-08-23T02:11:08.021Z,17.70
2022-08-23T02:13:35.981Z,17.70
2022-08-23T02:16:04.286Z,17.60
2022-08-23T02:18:33.742Z,17.50
2022-08-23T02:21:01.718Z,17.50
2022-08-23T02:23:29.909Z,17.40
2022-08-23T02:25:57.976Z,17.30
2022-08-23T02:28:27.628Z,17.30
2022-08-23T02:30:55.516Z,17.30
2022-08-23T02:33:23.734Z,17.30
2022-08-23T02:35:51.998Z,17.30
2022-08-23T02:38:21.212Z,17.30
2022-08-23T02:40:56.080Z,17.30
2022-08-23T02:43:30.220Z,17.20
2022-08-23T02:45:59.743Z,17.20
2022-08-23T02:48:28.217Z,17.10
2022-08-23T02:51:06.008Z,17.10
2022-08-23T02:53:34.210Z,17.10
2022-08-23T02:56:06.150Z,17.00
2022-08-23T02:58:46.663Z,17.00
2022-08-23T03:01:24.532Z,17.00
2022-08-23T03:03:54.502Z,17.00
2022-08-23T03:06:25.512Z,17.00
2022-08-23T03:08:54.647Z,16.90
2022-08-23T03:11:23.473Z,16.90
2022-08-23T03:13:56.241Z,16.80
2022-08-23T03:16:24.371Z,16.80
2022-08-23T03:18:52.972Z,16.70
2022-08-23T03:21:22.083Z,16.70
2022-08-23T03:23:50.134Z,16.70
2022-08-23T03:26:18.676Z,16.70
2022-08-23T03:28:48.627Z,16.70
2022-08-23T03:31:18.070Z,16.70
2022-08-23T03:33:59.347Z,16.60
2022-08-23T03:36:28.300Z,16.60
2022-08-23T03:38:58.049Z,16.60
2022-08-23T03:41:28.084Z,16.60
2022-08-23T03:43:56.889Z,16.60
2022-08-23T03:46:30.971Z,16.60
2022-08-23T03:49:02.404Z,16.50
2022-08-23T03:51:38.290Z,16.50
2022-08-23T03:54:06.758Z,16.40
2022-08-23T03:56:36.586Z,16.40
2022-08-23T03:59:06.257Z,16.40
2022-08-23T04:01:36.525Z,16.40
2022-08-23T04:04:05.236Z,16.40
2022-08-23T04:06:34.502Z,16.30
2022-08-23T04:09:02.846Z,16.30
2022-08-23T04:11:31.572Z,16.30
2022-08-23T04:14:06.233Z,16.40
2022-08-23T04:16:37.640Z,16.40
2022-08-23T04:19:06.308Z,16.40
2022-08-23T04:21:39.089Z,16.40
2022-08-23T04:24:07.111Z,16.40
2022-08-23T04:26:35.737Z,16.40
2022-08-23T04:29:04.341Z,16.40
2022-08-23T04:31:34.697Z,16.40
2022-08-23T04:34:05.435Z,16.40
2022-08-23T04:36:35.754Z,16.40
2022-08-23T04:39:04.329Z,16.40
2022-08-23T04:41:50.363Z,16.50
2022-08-23T04:44:18.502Z,16.60
2022-08-23T04:46:48.663Z,16.60
2022-08-23T04:49:20.071Z,16.70
2022-08-23T04:51:54.106Z,16.70
2022-08-23T04:54:23.429Z,16.90
2022-08-23T04:57:11.356Z,17.00
2022-08-23T04:59:41.066Z,17.00
2022-08-23T05:02:09.097Z,16.90
2022-08-23T05:04:38.364Z,16.90
2022-08-23T05:07:06.418Z,16.90
2022-08-23T05:09:34.685Z,17.00
2022-08-23T05:12:02.741Z,17.00
2022-08-23T05:14:32.580Z,17.00
2022-08-23T05:17:00.726Z,17.10
2022-08-23T05:19:28.761Z,17.40
2022-08-23T05:21:58.068Z,17.90
2022-08-23T05:24:42.729Z,18.30
2022-08-23T05:27:13.666Z,18.90
2022-08-23T05:29:41.889Z,19.50
2022-08-23T05:32:10.546Z,20.00
2022-08-23T05:34:38.610Z,20.30
2022-08-23T05:37:12.575Z,20.40
2022-08-23T05:39:42.444Z,20.20
2022-08-23T05:42:12.653Z,20.00
2022-08-23T05:44:40.645Z,20.20
2022-08-23T05:47:11.780Z,20.50
2022-08-23T05:49:59.897Z,20.80
2022-08-23T05:52:32.532Z,21.00
2022-08-23T05:55:00.462Z,21.40
2022-08-23T05:57:49.062Z,21.60
2022-08-23T06:00:17.036Z,22.00
2022-08-23T06:02:49.314Z,22.30
2022-08-23T06:05:20.730Z,22.70
2022-08-23T06:07:51.832Z,22.90
2022-08-23T06:10:22.816Z,23.10
2022-08-23T06:13:00.385Z,23.40
2022-08-23T06:15:28.631Z,23.40
2022-08-23T06:17:56.557Z,23.50
2022-08-23T06:20:25.078Z,23.90
2022-08-23T06:23:08.210Z,24.20
2022-08-23T06:25:39.864Z,24.30
2022-08-23T06:28:17.985Z,24.60
2022-08-23T06:30:48.479Z,25.00
2022-08-23T06:33:27.272Z,25.30
2022-08-23T06:36:26.346Z,25.70
2022-08-23T06:39:09.990Z,25.80
2022-08-23T06:41:58.121Z,26.20
2022-08-23T06:44:28.360Z,26.60
2022-08-23T06:47:02.389Z,26.80
2022-08-23T06:49:30.469Z,27.30
2022-08-23T06:52:00.053Z,27.40
2022-08-23T06:54:53.251Z,27.90
2022-08-23T06:57:27.232Z,28.80
2022-08-23T07:00:20.176Z,28.90
2022-08-23T07:03:25.091Z,29.00
2022-08-23T07:06:18.900Z,29.30
2022-08-23T07:08:47.043Z,29.30
2022-08-23T07:11:16.810Z,29.60
2022-08-23T07:13:44.853Z,30.00
2022-08-23T07:16:12.882Z,30.40
2022-08-23T07:18:40.901Z,31.30
2022-08-23T07:21:09.485Z,32.50
2022-08-23T07:23:39.889Z,33.70
2022-08-23T07:26:10.986Z,34.80
2022-08-23T07:28:40.783Z,35.40
2022-08-23T07:31:11.354Z,35.90
2022-08-23T07:33:44.593Z,36.80
2022-08-23T07:36:18.344Z,36.90
2022-08-23T07:38:47.636Z,37.10
2022-08-23T07:41:15.966Z,37.70
2022-08-23T07:43:45.596Z,38.40
2022-08-23T07:46:14.594Z,39.10
2022-08-23T07:48:53.855Z,39.40
2022-08-23T07:51:30.434Z,39.60
2022-08-23T07:53:58.665Z,40.30
2022-08-23T07:56:26.559Z,41.00
2022-08-23T07:59:19.675Z,41.30
2022-08-23T08:02:09.857Z,41.60
2022-08-23T08:04:38.693Z,41.80
2022-08-23T08:07:19.420Z,41.60
2022-08-23T08:09:55.022Z,41.10
2022-08-23T08:12:24.869Z,40.90
2022-08-23T08:14:56.603Z,40.70
2022-08-23T08:17:30.325Z,40.40
2022-08-23T08:20:16.744Z,40.60
2022-08-23T08:22:58.609Z,40.50
2022-08-23T08:25:47.035Z,39.90
2022-08-23T08:28:18.394Z,40.30
2022-08-23T08:30:47.744Z,40.70
2022-08-23T08:33:16.776Z,41.60
2022-08-23T08:35:48.184Z,42.70
2022-08-23T08:38:27.148Z,43.70
2022-08-23T08:41:01.110Z,44.20
2022-08-23T08:43:31.462Z,43.30
2022-08-23T08:46:04.225Z,43.70
2022-08-23T08:48:37.319Z,44.90
2022-08-23T08:51:08.849Z,45.60
2022-08-23T08:53:39.528Z,45.50
2022-08-23T08:56:17.745Z,45.40
2022-08-23T08:58:50.772Z,45.60
2022-08-23T09:01:22.550Z,46.40
2022-08-23T09:03:52.414Z,47.00
2022-08-23T09:06:23.633Z,47.50
2022-08-23T09:09:07.425Z,47.20
2022-08-23T09:11:40.074Z,47.20
2022-08-23T09:14:24.840Z,47.50
2022-08-23T09:16:55.266Z,47.80
2022-08-23T09:19:25.124Z,46.80
2022-08-23T09:21:56.988Z,46.20
2022-08-23T09:24:26.345Z,46.50
2022-08-23T09:27:14.661Z,45.50
2022-08-23T09:29:53.169Z,45.00
2022-08-23T09:32:31.096Z,45.10
2022-08-23T09:35:09.885Z,45.40
2022-08-23T09:37:54.801Z,45.30
2022-08-23T09:40:27.687Z,45.00
2022-08-23T09:43:04.010Z,45.10
2022-08-23T09:45:35.577Z,44.30
2022-08-23T09:48:07.412Z,44.40
2022-08-23T09:50:49.449Z,44.50
2022-08-23T09:53:24.530Z,43.90
2022-08-23T09:55:53.793Z,44.40
2022-08-23T09:58:31.936Z,44.70
2022-08-23T10:01:08.412Z,44.70
2022-08-23T10:03:37.868Z,44.60
2022-08-23T10:06:30.965Z,44.30
2022-08-23T10:09:05.216Z,44.30
2022-08-23T10:11:37.489Z,45.00
2022-08-23T10:14:05.689Z,45.60
2022-08-23T10:16:38.153Z,46.30
2022-08-23T10:19:18.565Z,46.60
2022-08-23T10:21:51.374Z,46.80
2022-08-23T10:24:28.212Z,46.90
2022-08-23T10:27:03.593Z,46.20
2022-08-23T10:29:40.990Z,46.20
2022-08-23T10:32:16.928Z,46.50
2022-08-23T10:34:58.105Z,47.30
2022-08-23T10:37:38.109Z,47.60
2022-08-23T10:40:12.368Z,47.80
2022-08-23T10:42:43.701Z,48.30
2022-08-23T10:45:17.349Z,49.00
2022-08-23T10:47:53.142Z,49.70
2022-08-23T10:50:22.719Z,49.40
2022-08-23T10:52:54.505Z,49.30
2022-08-23T10:55:35.768Z,49.60
2022-08-23T10:58:07.260Z,50.20
2022-08-23T11:00:37.787Z,50.40
2022-08-23T11:03:12.409Z,49.80
2022-08-23T11:05:43.195Z,49.20
2022-08-23T11:08:32.422Z,47.50
2022-08-23T11:11:02.342Z,46.50
2022-08-23T11:13:35.177Z,46.40
2022-08-23T11:16:08.076Z,46.80
2022-08-23T11:18:37.764Z,46.80
2022-08-23T11:21:09.050Z,47.20
2022-08-23T11:23:46.460Z,47.50
2022-08-23T11:26:36.721Z,47.60
2022-08-23T11:29:19.709Z,48.40
2022-08-23T11:31:59.480Z,49.00
2022-08-23T11:34:30.087Z,49.80
2022-08-23T11:37:20.899Z,50.60
2022-08-23T11:40:36.292Z,50.60
2022-08-23T11:43:07.753Z,50.80
2022-08-23T11:45:43.244Z,49.80
2022-08-23T11:48:20.372Z,49.30
2022-08-23T11:50:59.616Z,49.20
2022-08-23T11:53:36.091Z,49.30
2022-08-23T11:56:23.429Z,49.20
2022-08-23T11:59:00.773Z,49.10
2022-08-23T12:01:32.530Z,49.60
2022-08-23T12:04:02.314Z,50.20
2022-08-23T12:06:39.271Z,50.70
2022-08-23T12:09:13.013Z,50.70
2022-08-23T12:12:00.113Z,49.90
2022-08-23T12:14:38.098Z,48.50
2022-08-23T12:17:07.868Z,46.80
2022-08-23T12:19:41.567Z,45.70
2022-08-23T12:22:12.480Z,45.30
2022-08-23T12:24:44.477Z,45.00
2022-08-23T12:27:22.760Z,44.70
2022-08-23T12:29:59.564Z,44.90
2022-08-23T12:32:32.294Z,45.50
2022-08-23T12:35:11.545Z,45.90
2022-08-23T12:37:45.189Z,46.70
2022-08-23T12:40:14.591Z,48.00
2022-08-23T12:42:42.770Z,48.70
2022-08-23T12:45:15.191Z,48.50
2022-08-23T12:47:44.210Z,48.40
2022-08-23T12:50:20.878Z,48.90
2022-08-23T12:52:58.170Z,48.90
2022-08-23T12:55:31.007Z,48.90
2022-08-23T12:57:59.665Z,48.60
2022-08-23T13:00:31.090Z,47.80
2022-08-23T13:03:01.460Z,47.10
2022-08-23T13:05:37.634Z,46.50
2022-08-23T13:08:08.126Z,46.60
2022-08-23T13:10:37.617Z,46.30
2022-08-23T13:13:05.693Z,45.70
2022-08-23T13:15:50.053Z,45.90
2022-08-23T13:18:38.858Z,46.40
2022-08-23T13:21:20.529Z,46.80
2022-08-23T13:23:48.392Z,47.00
2022-08-23T13:26:30.408Z,47.50
2022-08-23T13:29:02.580Z,48.00
2022-08-23T13:31:45.323Z,48.70
2022-08-23T13:34:31.143Z,49.30
2022-08-23T13:36:59.693Z,49.40
2022-08-23T13:39:27.677Z,49.00
2022-08-23T13:41:55.643Z,49.20
2022-08-23T13:44:23.883Z,49.30
2022-08-23T13:46:53.778Z,49.30
2022-08-23T13:49:24.570Z,49.30
2022-08-23T13:52:37.863Z,49.60
2022-08-23T13:54:56.229Z,49.70
2022-08-23T13:57:26.454Z,49.40
2022-08-23T13:59:58.815Z,48.90
2022-08-23T14:02:26.799Z,48.60
2022-08-23T14:04:56.222Z,48.60
2022-08-23T14:07:24.239Z,48.70
2022-08-23T14:09:55.116Z,48.60
2022-08-23T14:12:24.934Z,48.60
2022-08-23T14:14:56.409Z,48.50
2022-08-23T14:17:24.304Z,48.70
2022-08-23T14:20:32.262Z,49.10
2022-08-23T14:22:41.468Z,49.30
2022-08-23T14:25:10.827Z,49.00
2022-08-23T14:27:39.993Z,49.00
2022-08-23T14:30:09.189Z,48.30
2022-08-23T14:32:38.660Z,48.00
2022-08-23T14:35:07.068Z,47.40
2022-08-23T14:40:26.979Z,45.80
2022-08-23T14:42:54.930Z,45.20
2022-08-23T14:45:23.463Z,45.00
2022-08-23T14:47:51.473Z,44.90
2022-08-23T14:50:19.716Z,45.00
2022-08-23T14:52:48.433Z,45.20
2022-08-23T14:55:16.807Z,45.50
2022-08-23T14:57:46.241Z,45.60
2022-08-23T15:00:14.914Z,45.30
2022-08-23T15:02:44.352Z,44.70
2022-08-23T15:05:12.637Z,44.30
2022-08-23T15:07:40.579Z,44.30
2022-08-23T15:10:09.896Z,44.20
2022-08-23T15:15:27.578Z,44.30
2022-08-23T15:17:57.486Z,44.00
2022-08-23T15:20:26.727Z,43.50
2022-08-23T15:22:55.351Z,43.20
2022-08-23T15:25:23.832Z,42.90
2022-08-23T15:27:52.628Z,42.70
2022-08-23T15:30:22.041Z,42.60
2022-08-23T15:32:52.138Z,42.80
2022-08-23T15:35:25.009Z,42.80
2022-08-23T15:37:54.606Z,42.70
2022-08-23T15:40:22.941Z,42.90
2022-08-23T15:42:50.892Z,42.80
2022-08-23T15:45:20.366Z,42.80
2022-08-23T15:47:49.093Z,42.60
2022-08-23T15:50:19.485Z,42.20
2022-08-23T15:52:47.539Z,42.00
2022-08-23T15:55:15.741Z,41.60
2022-08-23T15:57:46.106Z,41.20
2022-08-23T16:00:17.382Z,40.60
2022-08-23T16:03:14.452Z,40.50
2022-08-23T16:05:36.423Z,40.50
2022-08-23T16:08:04.630Z,40.30
2022-08-23T16:10:32.636Z,40.20
2022-08-23T16:13:00.677Z,39.90
2022-08-23T16:15:28.735Z,39.70
2022-08-23T16:17:56.724Z,39.40
2022-08-23T16:20:25.340Z,39.50
2022-08-23T16:22:54.613Z,39.50
2022-08-23T16:25:22.499Z,39.60
2022-08-23T16:27:51.643Z,39.70
2022-08-23T16:30:19.567Z,39.70
2022-08-23T16:32:47.590Z,39.80
2022-08-23T16:35:15.859Z,39.90
2022-08-23T16:37:43.769Z,39.90
2022-08-23T16:40:13.621Z,39.70
2022-08-23T16:42:42.613Z,39.20
2022-08-23T16:45:11.251Z,39.20
2022-08-23T16:47:41.655Z,39.20
2022-08-23T16:50:10.340Z,39.20
2022-08-23T16:52:38.262Z,39.20
2022-08-23T16:55:07.060Z,38.70
2022-08-23T16:57:36.467Z,38.30
2022-08-23T17:00:07.651Z,38.00
2022-08-23T17:02:36.890Z,37.70
2022-08-23T17:05:05.572Z,37.00
2022-08-23T17:07:33.549Z,36.60
2022-08-23T17:10:01.529Z,36.30
2022-08-23T17:12:29.861Z,35.90
2022-08-23T17:14:59.458Z,35.50
2022-08-23T17:17:27.584Z,35.10
2022-08-23T17:19:55.536Z,34.60
2022-08-23T17:22:23.673Z,34.30
2022-08-23T17:24:53.225Z,33.90
2022-08-23T17:27:21.596Z,33.60
2022-08-23T17:29:49.641Z,33.20
2022-08-23T17:32:24.002Z,32.90
2022-08-23T17:34:52.529Z,32.60
2022-08-23T17:37:21.666Z,32.30
2022-08-23T17:39:50.398Z,32.00
2022-08-23T17:42:21.726Z,31.80
2022-08-23T17:44:49.722Z,31.60
2022-08-23T17:47:18.142Z,31.40
2022-08-23T17:49:49.164Z,31.20
2022-08-23T17:52:17.919Z,31.00
2022-08-23T17:54:45.879Z,30.80
2022-08-23T17:57:13.941Z,30.60
2022-08-23T17:59:43.236Z,30.40
2022-08-23T18:02:11.166Z,30.30
2022-08-23T18:04:39.055Z,30.10
2022-08-23T18:07:08.538Z,29.90
2022-08-23T18:09:40.102Z,29.80
2022-08-23T18:12:16.167Z,29.60
2022-08-23T18:14:44.075Z,29.40
2022-08-23T18:17:12.164Z,29.20
2022-08-23T18:19:40.154Z,29.00
2022-08-23T18:22:09.374Z,28.80
2022-08-23T18:24:37.500Z,28.70
2022-08-23T18:27:22.984Z,28.50
2022-08-23T18:29:51.395Z,28.30
2022-08-23T18:32:21.157Z,28.20
2022-08-23T18:34:49.020Z,28.10
2022-08-23T18:37:21.612Z,27.90
2022-08-23T18:39:49.628Z,27.60
2022-08-23T18:42:17.933Z,27.40
2022-08-23T18:44:45.882Z,27.20
2022-08-23T18:47:13.776Z,26.90
2022-08-23T18:49:42.211Z,26.70
2022-08-23T18:52:10.176Z,26.60
2022-08-23T18:54:39.503Z,26.40
2022-08-23T18:57:07.790Z,26.20
2022-08-23T18:59:44.411Z,26.10
2022-08-23T19:02:13.842Z,26.00
2022-08-23T19:04:41.868Z,26.00
2022-08-23T19:07:09.836Z,26.00
2022-08-23T19:09:39.581Z,25.90
2022-08-23T19:12:08.077Z,25.70
2022-08-23T19:14:36.387Z,25.50
2022-08-23T19:17:05.102Z,25.40
2022-08-23T19:19:34.185Z,25.30
2022-08-23T19:22:02.113Z,25.10
2022-08-23T19:24:30.204Z,24.90
2022-08-23T19:26:59.719Z,24.80
2022-08-23T19:29:27.729Z,24.60
2022-08-23T19:31:55.642Z,24.50
2022-08-23T19:34:23.750Z,24.40
2022-08-23T19:37:00.861Z,24.20
2022-08-23T19:39:29.578Z,24.10
2022-08-23T19:41:58.988Z,23.90
2022-08-23T19:44:27.115Z,23.70
2022-08-23T19:46:55.858Z,23.60
2022-08-23T19:49:24.006Z,23.50
2022-08-23T19:51:52.024Z,23.40
2022-08-23T19:54:20.433Z,23.30
2022-08-23T19:56:49.607Z,23.30
2022-08-23T19:59:20.654Z,23.30
2022-08-23T20:01:49.727Z,23.30
2022-08-23T20:04:17.965Z,23.30
2022-08-23T20:06:46.396Z,23.20
2022-08-23T20:09:14.486Z,23.10
2022-08-23T20:11:42.834Z,23.00
2022-08-23T20:14:11.057Z,22.90
2022-08-23T20:16:41.031Z,22.90
2022-08-23T20:19:10.187Z,22.90
2022-08-23T20:21:38.775Z,22.80
2022-08-23T20:24:06.103Z,22.70
2022-08-23T20:26:34.879Z,22.60
2022-08-23T20:29:03.295Z,22.40
2022-08-23T20:31:33.125Z,22.30
2022-08-23T20:34:02.747Z,22.20
2022-08-23T20:36:31.720Z,22.10
2022-08-23T20:39:00.554Z,22.10
2022-08-23T20:41:29.153Z,22.00
2022-08-23T20:43:58.137Z,21.90
2022-08-23T20:46:26.563Z,21.90
2022-08-23T20:48:54.937Z,21.80
2022-08-23T20:51:24.642Z,21.70
2022-08-23T20:53:52.787Z,21.70
2022-08-23T20:56:21.090Z,21.70
2022-08-23T20:58:48.990Z,21.70
2022-08-23T21:01:17.383Z,21.70
2022-08-23T21:03:45.509Z,21.60
2022-08-23T21:06:16.692Z,21.60
2022-08-23T21:08:49.949Z,21.50
2022-08-23T21:11:22.677Z,21.40
2022-08-23T21:13:50.908Z,21.40
2022-08-23T21:16:18.973Z,21.30
2022-08-23T21:18:47.016Z,21.20
2022-08-23T21:21:19.739Z,21.10
2022-08-23T21:23:50.863Z,21.00
2022-08-23T21:26:19.455Z,21.00
2022-08-23T21:28:48.285Z,20.90
2022-08-23T21:31:17.920Z,20.80
2022-08-23T21:33:46.158Z,20.80
2022-08-23T21:36:14.765Z,20.90
2022-08-23T21:38:42.766Z,20.90
2022-08-23T21:41:27.456Z,20.90
2022-08-23T21:43:55.321Z,20.80
2022-08-23T21:46:23.284Z,20.80
2022-08-23T21:48:51.211Z,20.80
2022-08-23T21:51:19.072Z,20.70
2022-08-23T21:53:47.482Z,20.70
2022-08-23T21:56:17.067Z,20.70
2022-08-23T21:58:45.247Z,20.70
2022-08-23T22:01:14.128Z,20.70
2022-08-23T22:03:42.094Z,20.70
2022-08-23T22:06:13.002Z,20.60
2022-08-23T22:08:41.823Z,20.50
2022-08-23T22:11:11.228Z,20.50
2022-08-23T22:13:41.050Z,20.50
2022-08-23T22:16:09.563Z,20.50
2022-08-23T22:18:37.586Z,20.40
2022-08-23T22:21:06.501Z,20.40
2022-08-23T22:23:36.261Z,20.50
2022-08-23T22:26:05.370Z,20.60
2022-08-23T22:28:33.662Z,20.50
2022-08-23T22:31:04.057Z,20.50
2022-08-23T22:33:32.196Z,20.50
2022-08-23T22:36:02.885Z,20.30
2022-08-23T22:38:30.879Z,20.20
2022-08-23T22:40:59.277Z,20.20
2022-08-23T22:43:27.166Z,20.10
2022-08-23T22:45:56.399Z,20.00
2022-08-23T22:48:26.607Z,19.90
2022-08-23T22:51:04.009Z,19.90
2022-08-23T22:53:31.874Z,20.00
2022-08-23T22:55:59.873Z,19.90
2022-08-23T22:58:28.018Z,19.90
2022-08-23T23:00:56.014Z,19.90
2022-08-23T23:03:27.971Z,19.90
2022-08-23T23:05:55.947Z,19.90
2022-08-23T23:08:27.925Z,19.90
2022-08-23T23:10:56.101Z,19.90
2022-08-23T23:13:24.724Z,19.90
2022-08-23T23:15:52.708Z,19.90
2022-08-23T23:18:21.000Z,19.90
2022-08-23T23:20:49.541Z,19.90
2022-08-23T23:23:18.431Z,20.00
2022-08-23T23:25:46.854Z,20.00
2022-08-23T23:28:15.604Z,20.00
2022-08-23T23:30:43.575Z,20.00
2022-08-23T23:33:12.005Z,20.00
2022-08-23T23:35:40.015Z,20.00
2022-08-23T23:38:10.108Z,20.00
2022-08-23T23:40:38.623Z,20.10
2022-08-23T23:43:06.569Z,20.10
2022-08-23T23:45:37.305Z,20.10
2022-08-23T23:48:08.272Z,20.10
2022-08-23T23:50:36.941Z,20.10
2022-08-23T23:53:05.657Z,20.10
2022-08-23T23:55:34.875Z,20.00
2022-08-23T23:58:03.014Z,19.90
